createdAt,value
2019-05-17T00:00:00.532Z,81.32
2019-05-17T00:02:29.351Z,81.69
2019-05-17T00:05:00.306Z,81.87
2019-05-17T00:07:29.152Z,80.98
2019-05-17T00:09:57.996Z,81.77
2019-05-17T00:12:27.859Z,82.11
2019-05-17T00:14:58.757Z,81.67
2019-05-17T00:17:27.577Z,80.88
2019-05-17T00:19:57.496Z,80.75
2019-05-17T00:22:27.426Z,81.03
2019-05-17T00:24:56.818Z,80.99
2019-05-17T00:27:26.560Z,80.36
2019-05-17T00:29:57.093Z,80.58
2019-05-17T00:32:27.289Z,80.22
2019-05-17T00:34:56.283Z,80.21
2019-05-17T00:37:23.322Z,80.09
2019-05-17T00:39:52.794Z,79.75
2019-05-17T00:42:21.668Z,81.11
2019-05-17T00:44:50.519Z,79.72
2019-05-17T00:47:19.525Z,79.74
2019-05-17T00:49:48.347Z,80.26
2019-05-17T00:52:17.252Z,80.10
2019-05-17T00:54:46.903Z,80.36
2019-05-17T00:57:16.610Z,80.08
2019-05-17T00:59:47.603Z,79.99
2019-05-17T01:02:16.356Z,79.57
2019-05-17T01:04:43.342Z,80.27
2019-05-17T01:07:12.239Z,79.90
2019-05-17T01:09:42.475Z,80.52
2019-05-17T01:12:11.424Z,80.58
2019-05-17T01:14:40.560Z,81.54
2019-05-17T01:17:09.408Z,80.32
2019-05-17T01:19:38.895Z,80.39
2019-05-17T01:22:09.443Z,80.42
2019-05-17T01:24:38.477Z,80.51
2019-05-17T01:27:07.267Z,80.51
2019-05-17T01:29:36.753Z,80.94
2019-05-17T01:32:06.804Z,80.59
2019-05-17T01:34:34.547Z,81.95
2019-05-17T01:37:03.402Z,81.18
2019-05-17T01:39:33.605Z,81.60
2019-05-17T01:42:01.030Z,82.29
2019-05-17T01:44:29.855Z,81.60
2019-05-17T01:46:58.678Z,82.22
2019-05-17T01:49:27.485Z,81.19
2019-05-17T01:51:56.879Z,81.52
2019-05-17T01:54:26.882Z,80.88
2019-05-17T01:56:56.674Z,81.91
2019-05-17T01:59:26.643Z,81.49
2019-05-17T02:01:56.523Z,81.80
2019-05-17T02:04:26.667Z,82.29
2019-05-17T02:06:53.205Z,81.78
2019-05-17T02:09:37.193Z,82.19
2019-05-17T02:11:57.061Z,81.48
2019-05-17T02:14:26.713Z,81.71
2019-05-17T02:16:53.950Z,82.23
2019-05-17T02:19:22.763Z,81.74
2019-05-17T02:21:52.239Z,82.95
2019-05-17T02:24:21.066Z,82.85
2019-05-17T02:26:49.893Z,82.88
2019-05-17T02:29:21.365Z,83.46
2019-05-17T02:31:48.163Z,82.69
2019-05-17T02:34:17.021Z,83.25
2019-05-17T02:36:45.818Z,83.36
2019-05-17T02:39:15.266Z,84.14
2019-05-17T02:41:44.108Z,83.99
2019-05-17T02:44:13.627Z,82.68
2019-05-17T02:46:43.299Z,83.53
2019-05-17T02:49:13.734Z,83.46
2019-05-17T02:51:43.125Z,83.11
2019-05-17T02:54:13.003Z,83.04
2019-05-17T02:56:38.851Z,82.73
2019-05-17T02:59:13.126Z,83.50
2019-05-17T03:01:39.822Z,82.98
2019-05-17T03:04:08.713Z,83.58
2019-05-17T03:06:37.558Z,83.51
2019-05-17T03:09:06.805Z,83.29
2019-05-17T03:11:35.643Z,83.13
2019-05-17T03:14:04.495Z,82.70
2019-05-17T03:16:33.979Z,83.15
2019-05-17T03:19:04.209Z,83.28
2019-05-17T03:21:33.752Z,83.52
2019-05-17T03:24:03.128Z,83.56
2019-05-17T03:26:32.788Z,84.14
2019-05-17T03:29:03.347Z,83.50
2019-05-17T03:31:35.960Z,83.92
2019-05-17T03:33:57.850Z,83.19
2019-05-17T03:36:26.975Z,83.74
2019-05-17T03:38:55.731Z,83.11
2019-05-17T03:41:28.915Z,83.78
2019-05-17T03:43:53.531Z,83.88
2019-05-17T03:46:23.277Z,83.38
2019-05-17T03:48:53.187Z,84.31
2019-05-17T03:51:23.117Z,83.84
2019-05-17T03:53:53.159Z,84.93
2019-05-17T03:56:22.197Z,84.27
2019-05-17T03:58:48.754Z,84.70
2019-05-17T04:01:17.637Z,83.72
2019-05-17T04:03:46.484Z,83.67
2019-05-17T04:06:15.322Z,83.65
2019-05-17T04:08:44.993Z,82.76
2019-05-17T04:11:25.723Z,83.93
2019-05-17T04:13:43.472Z,83.82
2019-05-17T04:16:13.992Z,83.76
2019-05-17T04:18:43.654Z,83.51
2019-05-17T04:21:12.533Z,83.27
2019-05-17T04:23:42.743Z,82.39
2019-05-17T04:26:08.960Z,82.61
2019-05-17T04:28:37.794Z,82.06
2019-05-17T04:31:06.666Z,82.03
2019-05-17T04:33:36.820Z,82.10
2019-05-17T04:36:06.124Z,81.83
2019-05-17T04:38:35.739Z,81.55
2019-05-17T04:41:04.567Z,81.52
2019-05-17T04:43:33.960Z,81.44
2019-05-17T04:46:03.188Z,80.96
2019-05-17T04:48:32.654Z,81.16
2019-05-17T04:51:02.479Z,81.64
2019-05-17T04:53:32.804Z,81.44
2019-05-17T04:55:59.250Z,81.12
2019-05-17T04:58:28.098Z,80.57
2019-05-17T05:00:58.491Z,80.44
2019-05-17T05:03:27.314Z,79.71
2019-05-17T05:05:56.296Z,78.95
2019-05-17T05:08:26.235Z,78.79
2019-05-17T05:10:55.079Z,77.93
2019-05-17T05:13:23.894Z,75.93
2019-05-17T05:15:55.597Z,74.10
2019-05-17T05:18:24.499Z,70.11
2019-05-17T05:20:53.412Z,66.57
2019-05-17T05:23:23.880Z,64.94
2019-05-17T05:25:52.244Z,58.54
2019-05-17T05:28:22.365Z,56.41
2019-05-17T05:30:49.048Z,54.51
2019-05-17T05:33:18.907Z,51.77
2019-05-17T05:35:47.760Z,49.77
2019-05-17T05:38:17.550Z,51.01
2019-05-17T05:40:46.934Z,50.98
2019-05-17T05:43:15.764Z,51.56
2019-05-17T05:45:44.614Z,47.24
2019-05-17T05:48:13.459Z,43.44
2019-05-17T05:50:43.606Z,40.13
2019-05-17T05:53:13.403Z,40.83
2019-05-17T05:55:43.433Z,40.12
2019-05-17T05:58:12.353Z,38.99
2019-05-17T06:00:42.739Z,37.60
2019-05-17T06:03:12.066Z,35.25
2019-05-17T06:05:41.947Z,34.70
2019-05-17T06:08:08.147Z,35.68
2019-05-17T06:10:39.424Z,38.04
2019-05-17T06:13:05.877Z,38.64
2019-05-17T06:15:35.343Z,43.08
2019-05-17T06:18:04.217Z,45.82
2019-05-17T06:20:33.046Z,47.38
2019-05-17T06:23:02.578Z,47.94
2019-05-17T06:25:33.801Z,48.88
2019-05-17T06:28:01.422Z,49.19
2019-05-17T06:30:28.788Z,50.48
2019-05-17T06:32:57.621Z,51.26
2019-05-17T06:35:27.095Z,51.94
2019-05-17T06:37:55.907Z,53.72
2019-05-17T06:40:24.735Z,55.08
2019-05-17T06:42:56.203Z,55.99
2019-05-17T06:45:25.012Z,56.96
2019-05-17T06:47:54.108Z,56.11
2019-05-17T06:50:23.638Z,54.87
2019-05-17T06:52:53.205Z,54.46
2019-05-17T06:55:20.767Z,54.08
2019-05-17T06:57:52.668Z,53.62
2019-05-17T07:00:23.585Z,53.59
2019-05-17T07:02:49.808Z,53.54
2019-05-17T07:05:20.090Z,52.80
2019-05-17T07:07:49.819Z,53.20
2019-05-17T07:10:19.479Z,54.19
2019-05-17T07:12:57.686Z,54.02
2019-05-17T07:15:19.716Z,54.17
2019-05-17T07:17:46.528Z,54.19
2019-05-17T07:20:16.535Z,54.94
2019-05-17T07:22:45.360Z,55.51
2019-05-17T07:25:14.253Z,54.93
2019-05-17T07:27:45.832Z,55.15
2019-05-17T07:30:12.465Z,56.52
2019-05-17T07:32:41.853Z,57.00
2019-05-17T07:35:11.230Z,57.66
2019-05-17T07:37:40.870Z,58.05
2019-05-17T07:40:11.716Z,57.96
2019-05-17T07:42:40.753Z,57.95
2019-05-17T07:45:10.454Z,58.29
2019-05-17T07:47:40.351Z,58.18
2019-05-17T07:50:11.494Z,57.43
2019-05-17T07:52:39.847Z,57.53
2019-05-17T07:55:10.726Z,57.50
2019-05-17T07:57:40.610Z,55.41
2019-05-17T08:00:07.032Z,55.44
2019-05-17T08:02:35.863Z,55.92
2019-05-17T08:05:04.830Z,55.69
2019-05-17T08:07:34.195Z,56.97
2019-05-17T08:10:03.053Z,56.73
2019-05-17T08:12:33.676Z,56.51
2019-05-17T08:15:02.484Z,57.10
2019-05-17T08:17:32.522Z,57.26
2019-05-17T08:20:01.394Z,57.38
2019-05-17T08:22:31.966Z,58.43
2019-05-17T08:25:00.795Z,58.80
2019-05-17T08:27:29.913Z,58.61
2019-05-17T08:29:59.774Z,58.11
2019-05-17T08:32:31.381Z,58.65
2019-05-17T08:35:00.126Z,58.51
2019-05-17T08:37:26.214Z,58.67
2019-05-17T08:39:55.019Z,57.97
2019-05-17T08:42:23.839Z,58.34
2019-05-17T08:44:52.745Z,59.25
2019-05-17T08:47:21.549Z,60.11
2019-05-17T08:49:50.403Z,60.53
2019-05-17T08:52:20.061Z,60.51
2019-05-17T08:54:49.613Z,59.66
2019-05-17T08:57:20.562Z,59.76
2019-05-17T08:59:49.598Z,59.86
2019-05-17T09:02:16.187Z,60.83
2019-05-17T09:04:45.154Z,60.74
2019-05-17T09:07:14.087Z,61.21
2019-05-17T09:09:44.460Z,61.21
2019-05-17T09:12:13.267Z,61.49
2019-05-17T09:14:42.256Z,61.62
2019-05-17T09:17:11.153Z,61.51
2019-05-17T09:19:40.080Z,61.02
2019-05-17T09:22:10.499Z,60.82
2019-05-17T09:24:39.657Z,60.15
2019-05-17T09:27:06.478Z,60.25
2019-05-17T09:29:40.502Z,60.47
2019-05-17T09:32:09.591Z,59.88
2019-05-17T09:34:40.262Z,60.05
2019-05-17T09:37:09.737Z,60.15
2019-05-17T09:39:37.239Z,60.43
2019-05-17T09:42:10.417Z,60.35
2019-05-17T09:44:40.537Z,60.52
2019-05-17T09:47:10.648Z,59.27
2019-05-17T09:49:39.613Z,59.76
2019-05-17T09:52:09.604Z,59.77
2019-05-17T09:54:44.826Z,59.39
2019-05-17T09:57:09.759Z,59.42
2019-05-17T09:59:36.435Z,58.96
2019-05-17T10:02:05.239Z,57.80
2019-05-17T10:04:35.039Z,57.61
2019-05-17T10:07:03.943Z,56.87
2019-05-17T10:09:33.309Z,56.47
2019-05-17T10:12:02.948Z,56.25
2019-05-17T10:14:33.734Z,56.67
2019-05-17T10:17:02.735Z,56.96
2019-05-17T10:19:31.963Z,57.66
2019-05-17T10:22:01.427Z,57.55
2019-05-17T10:24:38.016Z,58.21
2019-05-17T10:27:00.755Z,57.93
2019-05-17T10:29:29.976Z,57.89
2019-05-17T10:31:59.922Z,58.21
2019-05-17T10:34:29.410Z,58.18
2019-05-17T10:36:57.871Z,58.38
2019-05-17T10:39:29.676Z,58.06
2019-05-17T10:41:57.085Z,57.64
2019-05-17T10:44:38.878Z,56.99
2019-05-17T10:46:54.731Z,57.30
2019-05-17T10:49:24.351Z,57.50
2019-05-17T10:51:53.169Z,58.15
2019-05-17T10:54:22.596Z,58.03
2019-05-17T10:56:51.394Z,56.97
2019-05-17T10:59:20.357Z,57.32
2019-05-17T11:01:53.107Z,56.69
2019-05-17T11:04:22.655Z,56.28
2019-05-17T11:06:51.551Z,56.10
2019-05-17T11:09:20.723Z,56.30
2019-05-17T11:11:51.961Z,55.61
2019-05-17T11:14:20.914Z,55.35
2019-05-17T11:16:50.084Z,54.46
2019-05-17T11:19:19.034Z,53.49
2019-05-17T11:21:47.857Z,52.80
2019-05-17T11:24:17.864Z,52.92
2019-05-17T11:26:46.675Z,51.43
2019-05-17T11:29:15.477Z,51.44
2019-05-17T11:31:45.500Z,50.09
2019-05-17T11:34:14.824Z,51.31
2019-05-17T11:36:45.656Z,51.43
2019-05-17T11:39:15.796Z,50.13
2019-05-17T11:41:45.627Z,50.92
2019-05-17T11:44:16.458Z,51.12
2019-05-17T11:46:48.207Z,51.55
2019-05-17T11:49:17.083Z,50.95
2019-05-17T11:51:45.857Z,51.16
2019-05-17T11:54:16.405Z,52.05
2019-05-17T11:56:45.429Z,51.44
2019-05-17T11:59:14.825Z,51.31
2019-05-17T12:01:44.930Z,50.95
2019-05-17T12:04:14.389Z,50.92
2019-05-17T12:06:44.327Z,51.62
2019-05-17T12:09:13.155Z,50.68
2019-05-17T12:11:42.633Z,50.57
2019-05-17T12:14:11.450Z,50.25
2019-05-17T12:16:41.318Z,49.59
2019-05-17T12:19:11.670Z,49.15
2019-05-17T12:21:41.584Z,48.86
2019-05-17T12:24:10.390Z,49.28
2019-05-17T12:26:39.246Z,49.25
2019-05-17T12:29:08.899Z,50.50
2019-05-17T12:31:38.396Z,49.97
2019-05-17T12:34:07.192Z,50.78
2019-05-17T12:36:36.029Z,50.55
2019-05-17T12:39:06.340Z,50.72
2019-05-17T12:41:35.758Z,51.46
2019-05-17T12:44:04.572Z,52.11
2019-05-17T12:46:35.044Z,51.94
2019-05-17T12:49:04.645Z,52.82
2019-05-17T12:51:34.089Z,52.83
2019-05-17T12:54:02.904Z,53.04
2019-05-17T12:56:31.958Z,52.83
2019-05-17T12:59:01.075Z,53.44
2019-05-17T13:01:30.921Z,53.01
2019-05-17T13:03:59.910Z,53.24
2019-05-17T13:06:29.131Z,53.14
2019-05-17T13:08:58.834Z,52.87
2019-05-17T13:11:28.107Z,52.77
2019-05-17T13:13:56.930Z,52.41
2019-05-17T13:16:25.998Z,52.83
2019-05-17T13:18:54.838Z,53.28
2019-05-17T13:21:24.470Z,54.23
2019-05-17T13:23:53.887Z,54.29
2019-05-17T13:26:23.113Z,53.72
2019-05-17T13:28:52.604Z,54.77
2019-05-17T13:31:21.443Z,55.16
2019-05-17T13:33:51.325Z,55.45
2019-05-17T13:36:20.404Z,55.53
2019-05-17T13:38:49.226Z,55.81
2019-05-17T13:41:19.039Z,55.56
2019-05-17T13:43:47.836Z,55.69
2019-05-17T13:46:30.715Z,56.32
2019-05-17T13:48:46.422Z,56.36
2019-05-17T13:51:16.096Z,56.02
2019-05-17T13:53:45.093Z,56.84
2019-05-17T13:56:13.867Z,57.18
2019-05-17T13:58:42.733Z,56.94
2019-05-17T14:01:11.639Z,57.10
2019-05-17T14:03:40.618Z,57.33
2019-05-17T14:06:09.531Z,57.16
2019-05-17T14:08:41.608Z,56.98
2019-05-17T14:11:11.278Z,56.83
2019-05-17T14:13:40.797Z,56.69
2019-05-17T14:16:10.261Z,56.44
2019-05-17T14:18:39.151Z,56.88
2019-05-17T14:21:08.008Z,55.80
2019-05-17T14:23:37.138Z,56.13
2019-05-17T14:26:06.264Z,55.86
2019-05-17T14:28:35.153Z,56.14
2019-05-17T14:31:04.079Z,56.12
2019-05-17T14:33:33.588Z,55.76
2019-05-17T14:36:02.453Z,55.76
2019-05-17T14:38:33.230Z,56.10
2019-05-17T14:41:07.900Z,56.08
2019-05-17T14:43:31.759Z,56.96
2019-05-17T14:45:59.777Z,56.81
2019-05-17T14:48:28.714Z,57.00
2019-05-17T14:50:58.087Z,56.76
2019-05-17T14:53:27.831Z,57.24
2019-05-17T14:55:56.693Z,57.78
2019-05-17T14:58:25.555Z,57.55
2019-05-17T15:00:54.426Z,57.67
2019-05-17T15:03:24.767Z,57.11
2019-05-17T15:05:53.700Z,57.60
2019-05-17T15:08:22.801Z,57.47
2019-05-17T15:10:51.629Z,57.87
2019-05-17T15:13:21.122Z,58.00
2019-05-17T15:15:50.859Z,58.21
2019-05-17T15:18:20.323Z,57.75
2019-05-17T15:20:49.236Z,57.87
2019-05-17T15:23:18.084Z,57.96
2019-05-17T15:25:46.915Z,57.66
2019-05-17T15:28:15.941Z,58.48
2019-05-17T15:30:46.412Z,57.91
2019-05-17T15:33:15.208Z,57.65
2019-05-17T15:35:44.130Z,57.77
2019-05-17T15:38:12.937Z,58.08
2019-05-17T15:40:41.860Z,58.67
2019-05-17T15:43:10.787Z,58.64
2019-05-17T15:45:39.640Z,59.07
2019-05-17T15:48:09.141Z,59.08
2019-05-17T15:50:38.303Z,59.71
2019-05-17T15:53:07.171Z,60.58
2019-05-17T15:55:36.007Z,60.21
2019-05-17T15:58:07.958Z,60.49
2019-05-17T16:00:37.531Z,60.67
2019-05-17T16:03:07.106Z,60.81
2019-05-17T16:05:36.744Z,61.04
2019-05-17T16:08:05.736Z,61.46
2019-05-17T16:10:34.544Z,62.41
2019-05-17T16:13:03.729Z,63.16
2019-05-17T16:15:32.194Z,63.56
2019-05-17T16:18:01.119Z,64.35
2019-05-17T16:20:30.468Z,65.46
2019-05-17T16:23:01.233Z,65.79
2019-05-17T16:25:30.071Z,65.89
2019-05-17T16:27:58.978Z,66.36
2019-05-17T16:30:27.854Z,66.23
2019-05-17T16:32:56.666Z,66.63
2019-05-17T16:35:26.069Z,67.53
2019-05-17T16:37:57.458Z,67.37
2019-05-17T16:40:26.804Z,67.92
2019-05-17T16:42:55.651Z,68.11
2019-05-17T16:45:26.013Z,68.45
2019-05-17T16:47:54.837Z,68.43
2019-05-17T16:50:23.983Z,68.62
2019-05-17T16:53:05.024Z,69.08
2019-05-17T16:55:22.044Z,69.93
2019-05-17T16:57:52.727Z,69.85
2019-05-17T17:00:26.000Z,70.19
2019-05-17T17:02:57.831Z,70.40
2019-05-17T17:05:28.181Z,71.45
2019-05-17T17:07:57.676Z,71.56
2019-05-17T17:10:26.623Z,71.98
2019-05-17T17:12:56.714Z,73.00
2019-05-17T17:15:26.258Z,72.38
2019-05-17T17:17:55.178Z,73.04
2019-05-17T17:20:24.814Z,73.84
2019-05-17T17:22:53.988Z,74.37
2019-05-17T17:25:22.969Z,73.71
2019-05-17T17:27:55.018Z,74.41
2019-05-17T17:30:23.963Z,74.59
2019-05-17T17:32:52.895Z,75.87
2019-05-17T17:35:22.329Z,75.71
2019-05-17T17:37:51.906Z,76.35
2019-05-17T17:40:20.992Z,77.06
2019-05-17T17:42:50.179Z,77.24
2019-05-17T17:45:19.203Z,77.45
2019-05-17T17:47:48.314Z,76.97
2019-05-17T17:50:17.768Z,77.31
2019-05-17T17:52:47.343Z,77.77
2019-05-17T17:55:17.127Z,77.83
2019-05-17T17:57:46.644Z,78.47
2019-05-17T18:00:16.254Z,77.59
2019-05-17T18:02:46.865Z,78.39
2019-05-17T18:05:16.691Z,79.11
2019-05-17T18:07:46.068Z,78.26
2019-05-17T18:10:24.642Z,78.13
2019-05-17T18:12:53.604Z,77.60
2019-05-17T18:15:26.883Z,77.79
2019-05-17T18:17:57.610Z,78.03
2019-05-17T18:20:27.232Z,78.03
2019-05-17T18:22:56.616Z,78.33
2019-05-17T18:25:27.798Z,78.25
2019-05-17T18:27:57.865Z,78.34
2019-05-17T18:30:26.783Z,79.07
2019-05-17T18:32:57.134Z,78.90
2019-05-17T18:35:25.976Z,78.74
2019-05-17T18:37:55.170Z,78.66
2019-05-17T18:40:24.877Z,78.51
2019-05-17T18:42:54.506Z,78.42
2019-05-17T18:45:23.893Z,78.16
2019-05-17T18:47:53.101Z,78.03
2019-05-17T18:50:23.221Z,77.78
2019-05-17T18:52:52.806Z,78.21
2019-05-17T18:55:22.850Z,77.92
2019-05-17T18:57:52.985Z,78.23
2019-05-17T19:00:22.344Z,77.89
2019-05-17T19:02:53.724Z,78.37
2019-05-17T19:05:24.493Z,78.30
2019-05-17T19:07:53.523Z,78.08
2019-05-17T19:10:23.960Z,78.14
2019-05-17T19:26:36.771Z,76.63
2019-05-17T19:29:05.869Z,77.80
2019-05-17T19:31:34.765Z,78.08
2019-05-17T19:34:03.743Z,78.18
2019-05-17T19:36:32.810Z,78.44
2019-05-17T19:39:01.829Z,78.32
2019-05-17T19:41:30.758Z,78.52
2019-05-17T19:44:01.050Z,78.52
2019-05-17T19:46:31.695Z,77.92
2019-05-17T19:49:00.793Z,77.89
2019-05-17T19:51:30.580Z,78.09
2019-05-17T19:53:59.447Z,78.09
2019-05-17T19:56:32.405Z,77.79
2019-05-17T19:59:05.748Z,77.96
2019-05-17T20:01:34.695Z,77.96
2019-05-17T20:04:07.724Z,77.91
2019-05-17T20:06:36.565Z,78.02
2019-05-17T20:09:08.396Z,78.57
2019-05-17T20:11:37.916Z,78.32
2019-05-17T20:14:08.440Z,78.20
2019-05-17T20:16:38.103Z,78.49
2019-05-17T20:19:08.443Z,78.30
2019-05-17T20:21:39.073Z,78.55
2019-05-17T20:24:08.855Z,78.79
2019-05-17T20:26:38.464Z,78.41
2019-05-17T20:29:42.992Z,78.28
2019-05-17T20:32:13.121Z,77.39
2019-05-17T20:34:42.301Z,77.67
2019-05-17T20:37:11.992Z,77.77
2019-05-17T20:39:41.920Z,77.81
2019-05-17T20:42:11.993Z,77.80
2019-05-17T20:44:41.618Z,77.92
2019-05-17T20:47:11.155Z,78.32
2019-05-17T20:49:43.092Z,78.56
2019-05-17T20:52:12.903Z,79.12
2019-05-17T20:54:43.716Z,79.28
2019-05-17T20:57:13.463Z,79.12
2019-05-17T20:59:42.338Z,79.68
2019-05-17T21:02:12.760Z,79.71
2019-05-17T21:04:41.641Z,79.94
2019-05-17T21:07:10.588Z,80.23
2019-05-17T21:09:39.613Z,80.04
2019-05-17T21:12:09.020Z,79.97
2019-05-17T21:14:38.016Z,79.92
2019-05-17T21:17:07.448Z,79.83
2019-05-17T21:19:36.874Z,79.69
2019-05-17T21:22:05.838Z,80.76
2019-05-17T21:24:35.719Z,80.52
2019-05-17T21:27:04.660Z,80.93
2019-05-17T21:29:33.566Z,81.18
2019-05-17T21:32:03.436Z,82.17
2019-05-17T21:34:33.654Z,82.02
2019-05-17T21:37:04.044Z,82.04
2019-05-17T21:39:32.857Z,81.64
2019-05-17T21:42:02.334Z,81.31
2019-05-17T21:44:31.950Z,80.51
2019-05-17T21:47:04.748Z,81.68
2019-05-17T21:49:31.052Z,81.97
2019-05-17T21:52:00.964Z,82.24
2019-05-17T21:54:30.266Z,82.09
2019-05-17T21:57:00.108Z,81.83
2019-05-17T21:59:29.632Z,81.59
2019-05-17T22:01:58.610Z,82.32
2019-05-17T22:04:27.517Z,82.39
2019-05-17T22:06:56.828Z,82.33
2019-05-17T22:09:27.157Z,82.32
2019-05-17T22:11:58.630Z,82.22
2019-05-17T22:14:27.590Z,82.42
2019-05-17T22:16:57.006Z,82.33
2019-05-17T22:19:27.561Z,82.02
2019-05-17T22:21:56.871Z,82.25
2019-05-17T22:24:26.799Z,82.49
2019-05-17T22:26:55.588Z,82.83
2019-05-17T22:29:24.436Z,82.89
2019-05-17T22:31:53.572Z,83.04
2019-05-17T22:34:22.427Z,83.37
2019-05-17T22:36:51.244Z,83.51
2019-05-17T22:39:20.674Z,84.17
2019-05-17T22:41:49.767Z,83.76
2019-05-17T22:44:18.584Z,83.85
2019-05-17T22:49:22.477Z,84.13
2019-05-17T22:51:51.361Z,84.61
2019-05-17T22:54:20.202Z,84.47
2019-05-17T22:56:51.236Z,84.93
2019-05-17T22:59:21.371Z,85.50
2019-05-17T23:01:51.630Z,85.55
2019-05-17T23:04:21.075Z,86.10
2019-05-17T23:06:49.898Z,85.32
2019-05-17T23:09:19.313Z,85.60
2019-05-17T23:11:48.266Z,85.67
2019-05-17T23:14:17.157Z,85.69
2019-05-17T23:16:51.619Z,86.07
2019-05-17T23:19:14.836Z,85.82
2019-05-17T23:21:44.306Z,85.80
2019-05-17T23:24:13.881Z,85.66
2019-05-17T23:26:42.707Z,85.55
2019-05-17T23:29:12.489Z,85.91
2019-05-17T23:31:41.422Z,85.76
2019-05-17T23:34:10.211Z,85.58
2019-05-17T23:36:39.759Z,85.18
2019-05-17T23:39:08.592Z,85.14
2019-05-17T23:41:38.694Z,85.21
2019-05-17T23:44:08.123Z,85.32
2019-05-17T23:46:38.191Z,85.16
2019-05-17T23:49:13.056Z,84.81
2019-05-17T23:51:42.502Z,84.45
2019-05-17T23:54:12.094Z,85.04
2019-05-17T23:56:41.067Z,84.97
2019-05-17T23:59:10.811Z,84.53
